Time;durP1;ratioP1;P1;durP2;ratioP2;P2;SDS_P1;SDS_P2;PMS_P1;PMS_P2;Temp;Humidity;BMP_temperature;BMP_pressure;BME280_temperature;BME280_humidity;BME280_pressure;Samples;Min_cycle;Max_cycle;Signal;HPM_P1;HPM_P2
2022/04/23 00:00:07;;;;;;;20.00;18.00;;;10.30;99.90;;;;;;5128947;27;20234;-62
2022/04/23 00:02:34;;;;;;;19.87;17.97;;;10.30;99.90;;;;;;5129019;27;20217;-62
2022/04/23 00:05:00;;;;;;;21.20;19.10;;;10.30;99.90;;;;;;5128577;28;20212;-62
2022/04/23 00:07:27;;;;;;;20.83;18.83;;;10.20;99.90;;;;;;5128622;28;20198;-62
2022/04/23 00:09:56;;;;;;;20.93;19.13;;;10.30;99.90;;;;;;5128572;28;20204;-63
2022/04/23 00:12:23;;;;;;;20.73;18.77;;;10.20;99.90;;;;;;5115783;28;20210;-63
2022/04/23 00:14:50;;;;;;;20.53;18.77;;;10.20;99.90;;;;;;5115918;28;20281;-63
2022/04/23 00:17:18;;;;;;;21.83;19.63;;;10.20;99.90;;;;;;5115893;28;20259;-62
2022/04/23 00:19:46;;;;;;;21.40;19.40;;;10.20;99.90;;;;;;5115071;28;20213;-63
2022/04/23 00:22:15;;;;;;;20.80;18.90;;;10.10;99.90;;;;;;5114982;28;20194;-63
2022/04/23 00:24:43;;;;;;;21.53;19.37;;;10.10;99.90;;;;;;5115067;28;20194;-63
2022/04/23 00:27:11;;;;;;;22.60;20.53;;;10.10;99.90;;;;;;5114595;28;20206;-63
2022/04/23 00:29:39;;;;;;;22.37;20.13;;;10.10;99.90;;;;;;5114640;28;20193;-63
2022/04/23 00:32:07;;;;;;;22.63;20.63;;;10.10;99.90;;;;;;5115060;28;20718;-62
2022/04/23 00:34:34;;;;;;;22.23;20.20;;;10.10;99.90;;;;;;5115414;28;20236;-62
2022/04/23 00:37:03;;;;;;;23.07;20.63;;;10.10;99.90;;;;;;5115188;28;20202;-62
2022/04/23 00:39:30;;;;;;;22.43;20.27;;;10.10;99.90;;;;;;5114720;27;20242;-63
2022/04/23 00:41:59;;;;;;;23.20;20.80;;;10.10;99.90;;;;;;5114005;28;20198;-63
2022/04/23 00:44:27;;;;;;;24.37;22.07;;;10.10;99.90;;;;;;5115025;28;20197;-63
2022/04/23 00:46:54;;;;;;;24.00;21.50;;;10.00;99.90;;;;;;5114994;28;20688;-63
2022/04/23 00:49:21;;;;;;;23.93;21.73;;;10.00;99.90;;;;;;5115249;28;20202;-62
2022/04/23 00:51:50;;;;;;;24.63;22.27;;;10.00;99.90;;;;;;5115224;28;20199;-63
2022/04/23 00:54:18;;;;;;;24.00;21.63;;;10.00;99.90;;;;;;5114849;28;20198;-63
2022/04/23 00:56:45;;;;;;;24.00;21.80;;;10.00;99.90;;;;;;5115141;28;20224;-63
2022/04/23 00:59:13;;;;;;;24.07;21.87;;;10.00;99.90;;;;;;5114758;28;20325;-63
2022/04/23 01:01:42;;;;;;;24.50;22.10;;;9.90;99.90;;;;;;5115110;28;20197;-63
2022/04/23 01:04:12;;;;;;;24.87;22.57;;;9.90;99.90;;;;;;5114177;28;20244;-62
2022/04/23 01:06:40;;;;;;;24.27;22.07;;;10.00;99.90;;;;;;5114965;28;20194;-63
2022/04/23 01:09:08;;;;;;;24.37;22.07;;;10.00;99.90;;;;;;5115118;28;20200;-63
2022/04/23 01:11:36;;;;;;;24.27;21.97;;;10.00;99.90;;;;;;5114580;28;20213;-62
2022/04/23 01:14:04;;;;;;;24.50;22.27;;;10.00;99.90;;;;;;5114831;28;20201;-63
2022/04/23 01:16:31;;;;;;;28.10;22.80;;;9.90;99.90;;;;;;5114729;28;20202;-62
2022/04/23 01:19:00;;;;;;;23.87;21.67;;;10.00;99.90;;;;;;5114449;28;20555;-62
2022/04/23 01:21:28;;;;;;;24.40;22.13;;;10.00;99.90;;;;;;5114612;28;20221;-62
2022/04/23 01:23:57;;;;;;;24.97;22.53;;;9.90;99.90;;;;;;5113592;28;20193;-62
2022/04/23 01:26:26;;;;;;;24.53;22.13;;;9.90;99.90;;;;;;5114573;28;20203;-63
2022/04/23 01:28:54;;;;;;;23.60;21.40;;;10.00;99.90;;;;;;5114428;28;20190;-62
2022/04/23 01:31:21;;;;;;;24.67;22.30;;;10.00;99.90;;;;;;5114475;28;20247;-62
2022/04/23 01:33:48;;;;;;;24.37;22.13;;;10.00;99.90;;;;;;5114316;28;20212;-62
2022/04/23 01:36:15;;;;;;;24.63;22.40;;;10.00;99.90;;;;;;5114355;28;20529;-62
2022/04/23 01:38:44;;;;;;;24.70;22.47;;;10.00;99.90;;;;;;5114346;28;20247;-62
2022/04/23 01:41:12;;;;;;;24.30;21.93;;;9.90;99.90;;;;;;5113879;28;20320;-62
2022/04/23 01:43:39;;;;;;;24.40;22.10;;;9.90;99.90;;;;;;5114198;28;20318;-63
2022/04/23 01:46:06;;;;;;;23.53;21.27;;;9.90;99.90;;;;;;5114168;28;20197;-62
2022/04/23 01:48:33;;;;;;;25.57;23.17;;;9.90;99.90;;;;;;5114155;28;20207;-62
2022/04/23 01:51:00;;;;;;;25.30;22.90;;;9.90;99.90;;;;;;5114134;27;20197;-62
2022/04/23 01:53:27;;;;;;;24.73;22.40;;;9.90;99.90;;;;;;5113979;28;20197;-62
2022/04/23 01:55:56;;;;;;;25.13;22.73;;;9.80;99.90;;;;;;5113641;28;20683;-62
2022/04/23 01:58:24;;;;;;;24.93;22.47;;;9.80;99.90;;;;;;5113901;28;20211;-62
2022/04/23 02:00:51;;;;;;;23.83;21.70;;;9.90;99.90;;;;;;5113380;28;20243;-62
2022/04/23 02:03:18;;;;;;;24.00;21.50;;;9.80;99.90;;;;;;5113993;28;20209;-62
2022/04/23 02:05:45;;;;;;;23.43;21.33;;;9.80;99.90;;;;;;5113952;28;20243;-62
2022/04/23 02:08:16;;;;;;;23.33;20.97;;;9.80;99.90;;;;;;5113783;28;20213;-62
2022/04/23 02:10:43;;;;;;;23.93;21.73;;;9.80;99.90;;;;;;5114956;28;20178;-63
2022/04/23 02:13:12;;;;;;;23.10;20.90;;;9.80;99.90;;;;;;5113825;28;20236;-62
2022/04/23 02:15:40;;;;;;;24.37;22.07;;;9.80;99.90;;;;;;5113631;28;20194;-62
2022/04/23 02:18:08;;;;;;;25.87;23.27;;;9.80;99.90;;;;;;5113639;28;20570;-62
2022/04/23 02:20:35;;;;;;;23.77;21.30;;;9.70;99.90;;;;;;5113502;28;20214;-62
2022/04/23 02:23:02;;;;;;;24.37;21.87;;;9.70;99.90;;;;;;5113811;28;20202;-62
2022/04/23 02:25:29;;;;;;;25.30;22.80;;;9.70;99.90;;;;;;5115425;28;20220;-62
2022/04/23 02:27:56;;;;;;;29.70;24.17;;;9.70;99.90;;;;;;5115826;28;20216;-62
2022/04/23 02:30:24;;;;;;;24.70;22.30;;;9.70;99.90;;;;;;5113884;28;20198;-62
2022/04/23 02:32:51;;;;;;;26.57;23.93;;;9.60;99.90;;;;;;5113265;28;20699;-63
2022/04/23 02:35:20;;;;;;;25.50;23.10;;;9.60;99.90;;;;;;5112788;28;20193;-62
2022/04/23 02:37:48;;;;;;;24.53;22.23;;;9.60;99.90;;;;;;5112780;28;20246;-62
2022/04/23 02:40:16;;;;;;;24.83;22.43;;;9.60;99.90;;;;;;5112612;28;20209;-63
2022/04/23 02:42:44;;;;;;;25.03;22.73;;;9.60;99.90;;;;;;5112586;28;20254;-63
2022/04/23 02:45:14;;;;;;;24.83;22.53;;;9.60;99.90;;;;;;5112756;28;20281;-63
2022/04/23 02:47:47;;;;;;;25.60;23.20;;;9.50;99.90;;;;;;5110148;28;20186;-62
2022/04/23 02:50:15;;;;;;;25.17;22.73;;;9.50;99.90;;;;;;5112638;28;20204;-63
2022/04/23 02:52:43;;;;;;;25.53;23.00;;;9.40;99.90;;;;;;5113214;28;20204;-63
2022/04/23 02:55:11;;;;;;;25.67;23.20;;;9.40;99.90;;;;;;5112548;28;20197;-63
2022/04/23 02:57:38;;;;;;;25.03;22.67;;;9.40;99.90;;;;;;5112420;28;20197;-63
2022/04/23 03:00:07;;;;;;;24.87;22.53;;;9.40;99.90;;;;;;5109307;28;20217;-62
2022/04/23 03:02:36;;;;;;;25.53;23.13;;;9.40;99.90;;;;;;5112588;28;20194;-63
2022/04/23 03:05:06;;;;;;;24.60;22.30;;;9.30;99.90;;;;;;5113500;28;20231;-63
2022/04/23 03:07:35;;;;;;;24.90;22.47;;;9.30;99.90;;;;;;5113032;28;20286;-64
2022/04/23 03:10:02;;;;;;;25.60;23.10;;;9.30;99.90;;;;;;5112426;28;20712;-64
2022/04/23 03:12:29;;;;;;;26.73;24.13;;;9.30;99.90;;;;;;5113131;28;20202;-64
2022/04/23 03:14:56;;;;;;;25.60;23.30;;;9.30;99.90;;;;;;5112875;28;20209;-64
2022/04/23 03:17:23;;;;;;;26.00;23.57;;;9.30;99.90;;;;;;5112851;28;20206;-64
2022/04/23 03:19:50;;;;;;;26.20;23.70;;;9.30;99.90;;;;;;5112858;28;20329;-64
2022/04/23 03:22:19;;;;;;;25.30;22.80;;;9.30;99.90;;;;;;5112773;28;20231;-64
2022/04/23 03:24:46;;;;;;;25.40;23.00;;;9.30;99.90;;;;;;5112910;28;20200;-64
2022/04/23 03:27:13;;;;;;;25.07;22.73;;;9.20;99.90;;;;;;5112748;28;20535;-64
2022/04/23 03:29:40;;;;;;;26.17;23.47;;;9.30;99.90;;;;;;5112733;28;20205;-64
2022/04/23 03:32:10;;;;;;;26.13;23.63;;;9.30;99.90;;;;;;5112550;28;20694;-64
2022/04/23 03:34:37;;;;;;;26.10;23.43;;;9.20;99.90;;;;;;5112641;28;20596;-63
2022/04/23 03:37:05;;;;;;;27.30;24.50;;;9.30;99.90;;;;;;5112739;28;20216;-64
2022/04/23 03:39:33;;;;;;;25.90;23.40;;;9.30;99.90;;;;;;5112675;28;20202;-64
2022/04/23 03:42:02;;;;;;;25.70;23.17;;;9.20;99.90;;;;;;5112297;28;20258;-64
2022/04/23 03:44:30;;;;;;;25.27;22.77;;;9.30;99.90;;;;;;5112501;28;20277;-64
2022/04/23 03:46:57;;;;;;;25.77;23.17;;;9.30;99.90;;;;;;5114966;28;20197;-63
2022/04/23 03:49:24;;;;;;;24.60;22.30;;;9.30;99.90;;;;;;5116462;28;20197;-64
2022/04/23 03:51:52;;;;;;;25.87;23.17;;;9.30;99.90;;;;;;5116471;28;20556;-64
2022/04/23 03:54:19;;;;;;;24.97;22.57;;;9.20;99.90;;;;;;5116040;28;20212;-64
2022/04/23 03:56:48;;;;;;;26.83;24.23;;;9.20;99.90;;;;;;5116319;28;20194;-65
2022/04/23 03:59:20;;;;;;;25.93;23.33;;;9.30;99.90;;;;;;5116228;28;20226;-63
2022/04/23 04:01:47;;;;;;;28.10;25.20;;;9.20;99.90;;;;;;5116483;28;20201;-63
2022/04/23 04:04:15;;;;;;;28.20;25.30;;;9.20;99.90;;;;;;5117153;28;20198;-63
2022/04/23 04:06:42;;;;;;;28.87;25.80;;;9.20;99.90;;;;;;5116379;28;20713;-64
2022/04/23 04:09:09;;;;;;;30.80;27.53;;;9.20;99.90;;;;;;5116443;28;20197;-63
2022/04/23 04:14:18;;;;;;;29.40;26.40;;;9.20;99.90;;;;;;5116526;28;20224;-64
2022/04/23 04:16:47;;;;;;;31.33;28.13;;;9.30;99.90;;;;;;5116333;28;20196;-64
2022/04/23 04:19:15;;;;;;;30.80;27.70;;;9.20;99.90;;;;;;5116411;28;20205;-65
2022/04/23 04:21:43;;;;;;;32.50;29.13;;;9.20;99.90;;;;;;5116465;28;20752;-65
2022/04/23 04:24:12;;;;;;;31.40;28.20;;;9.30;99.90;;;;;;5116605;28;20219;-65
2022/04/23 04:26:40;;;;;;;32.47;28.73;;;9.30;99.90;;;;;;5116509;28;20281;-66
2022/04/23 04:29:07;;;;;;;30.77;27.67;;;9.30;99.90;;;;;;5117913;28;20249;-68
2022/04/23 04:31:49;;;;;;;32.37;28.87;;;9.20;99.90;;;;;;5119902;28;20203;-65
2022/04/23 04:34:18;;;;;;;31.13;27.77;;;9.20;99.90;;;;;;5116573;28;20702;-65
2022/04/23 04:36:46;;;;;;;32.00;28.70;;;9.20;99.90;;;;;;5116076;28;20220;-65
2022/04/23 04:39:13;;;;;;;33.27;29.90;;;9.20;99.90;;;;;;5115918;28;20300;-64
2022/04/23 04:41:41;;;;;;;32.23;28.97;;;9.20;99.90;;;;;;5115378;28;20249;-64
2022/04/23 04:44:08;;;;;;;32.80;29.50;;;9.20;99.90;;;;;;5115590;28;20198;-65
2022/04/23 04:46:38;;;;;;;32.47;29.17;;;9.20;99.90;;;;;;5115198;28;20205;-64
2022/04/23 04:49:06;;;;;;;32.70;29.50;;;9.20;99.90;;;;;;5115474;28;20233;-64
2022/04/23 04:51:35;;;;;;;34.07;30.67;;;9.20;99.90;;;;;;5115570;28;20204;-65
2022/04/23 04:54:02;;;;;;;33.60;30.17;;;9.20;99.90;;;;;;5115505;28;20556;-65
2022/04/23 04:56:29;;;;;;;32.93;29.63;;;9.20;99.90;;;;;;5114913;28;20205;-65
2022/04/23 04:58:55;;;;;;;33.03;29.93;;;9.30;99.90;;;;;;5114982;28;20229;-65
2022/04/23 05:01:23;;;;;;;33.27;30.07;;;9.30;99.90;;;;;;5114916;28;20197;-65
2022/04/23 05:03:53;;;;;;;33.00;29.60;;;9.30;99.90;;;;;;5115950;28;20217;-64
2022/04/23 05:06:20;;;;;;;34.10;30.83;;;9.30;99.90;;;;;;5117181;28;20585;-64
2022/04/23 05:08:47;;;;;;;35.60;32.20;;;9.40;99.90;;;;;;5115817;28;20703;-64
2022/04/23 05:11:15;;;;;;;33.87;30.37;;;9.40;99.90;;;;;;5115467;28;20202;-65
2022/04/23 05:13:41;;;;;;;34.80;31.43;;;9.40;99.90;;;;;;5114970;28;20190;-65
2022/04/23 05:16:09;;;;;;;34.20;30.80;;;9.50;99.90;;;;;;5114957;28;20186;-64
2022/04/23 05:18:36;;;;;;;34.17;30.77;;;9.50;99.90;;;;;;5114201;28;20202;-65
2022/04/23 05:21:05;;;;;;;33.23;29.83;;;9.60;99.90;;;;;;5114536;28;20206;-65
2022/04/23 05:23:32;;;;;;;34.63;31.27;;;9.70;99.90;;;;;;5114360;28;20199;-64
2022/04/23 05:25:59;;;;;;;31.53;28.53;;;9.70;99.90;;;;;;5112305;28;20213;-65
2022/04/23 05:28:26;;;;;;;33.33;30.13;;;9.80;99.90;;;;;;5112850;28;20190;-64
2022/04/23 05:30:53;;;;;;;33.77;30.47;;;9.90;99.90;;;;;;5112547;28;20243;-64
2022/04/23 05:33:20;;;;;;;34.93;31.33;;;9.90;99.90;;;;;;5113015;28;20553;-64
2022/04/23 05:35:47;;;;;;;34.47;31.00;;;10.00;99.90;;;;;;5113676;28;20202;-64
2022/04/23 05:38:15;;;;;;;33.87;30.47;;;10.20;99.90;;;;;;5113938;28;20189;-65
2022/04/23 05:40:42;;;;;;;32.33;29.20;;;10.20;99.90;;;;;;5113813;28;20196;-65
2022/04/23 05:43:09;;;;;;;31.73;28.63;;;10.40;99.90;;;;;;5113402;28;20183;-66
2022/04/23 05:45:36;;;;;;;31.03;28.03;;;10.60;99.90;;;;;;5114033;28;20188;-65
2022/04/23 05:48:04;;;;;;;33.20;29.47;;;10.90;99.90;;;;;;5110984;28;20242;-65
2022/04/23 05:50:31;;;;;;;28.03;25.20;;;11.20;99.90;;;;;;5113871;28;20192;-65
2022/04/23 05:52:58;;;;;;;31.03;28.03;;;11.50;99.90;;;;;;5113265;28;20182;-65
2022/04/23 05:55:26;;;;;;;29.10;26.47;;;11.70;99.90;;;;;;5111237;28;20193;-65
2022/04/23 05:57:53;;;;;;;26.80;24.00;;;12.00;99.90;;;;;;5113598;28;20681;-66
2022/04/23 06:00:21;;;;;;;25.83;23.47;;;12.40;99.90;;;;;;5110413;28;20224;-66
2022/04/23 06:02:48;;;;;;;26.83;24.27;;;12.70;99.90;;;;;;5112597;28;20217;-64
2022/04/23 06:05:15;;;;;;;26.00;23.40;;;12.90;99.90;;;;;;5114215;28;20200;-65
2022/04/23 06:07:42;;;;;;;25.23;22.77;;;13.10;99.90;;;;;;5113566;28;20272;-65
2022/04/23 06:10:10;;;;;;;28.20;24.13;;;13.30;99.90;;;;;;5114442;28;20194;-66
2022/04/23 06:12:39;;;;;;;24.53;22.23;;;13.10;99.90;;;;;;5114290;28;20194;-66
2022/04/23 06:15:07;;;;;;;26.13;23.70;;;13.30;99.90;;;;;;5115182;28;20410;-66
2022/04/23 06:17:34;;;;;;;24.60;22.27;;;13.40;99.90;;;;;;5113733;28;20189;-66
2022/04/23 06:20:01;;;;;;;24.67;22.37;;;13.50;99.90;;;;;;5112415;28;20247;-66
2022/04/23 06:22:28;;;;;;;23.80;21.50;;;13.80;99.90;;;;;;5113035;28;20224;-66
2022/04/23 06:24:55;;;;;;;24.07;21.63;;;13.80;99.90;;;;;;5114430;28;20209;-65
2022/04/23 06:27:23;;;;;;;24.17;21.97;;;13.80;99.90;;;;;;5116077;28;20202;-65
2022/04/23 06:29:51;;;;;;;23.60;21.50;;;14.10;99.90;;;;;;5112401;28;20213;-67
2022/04/23 06:32:18;;;;;;;24.53;22.03;;;14.10;99.90;;;;;;5113459;28;20202;-66
2022/04/23 06:34:45;;;;;;;24.63;22.40;;;14.30;99.90;;;;;;5113452;28;20201;-67
2022/04/23 06:37:12;;;;;;;25.87;23.33;;;14.40;99.90;;;;;;5112652;28;20525;-67
2022/04/23 06:39:39;;;;;;;24.80;22.40;;;14.60;99.90;;;;;;5112516;28;20212;-67
2022/04/23 06:42:06;;;;;;;23.03;20.70;;;14.80;99.90;;;;;;5111083;28;20228;-64
2022/04/23 06:44:40;;;;;;;23.90;21.70;;;14.80;99.90;;;;;;5109350;27;20642;-66
2022/04/23 06:47:08;;;;;;;23.13;20.97;;;14.80;99.90;;;;;;5092548;28;20188;-69
2022/04/23 06:49:36;;;;;;;24.60;22.13;;;14.90;99.90;;;;;;5093093;28;20656;-68
2022/04/23 06:52:03;;;;;;;23.67;21.47;;;15.00;99.90;;;;;;5093527;28;20663;-67
2022/04/23 06:54:30;;;;;;;22.57;20.57;;;15.10;99.90;;;;;;5092711;28;20669;-66
2022/04/23 06:56:57;;;;;;;33.67;22.53;;;15.40;99.90;;;;;;5105321;28;20252;-65
2022/04/23 06:59:24;;;;;;;21.63;19.80;;;15.70;99.90;;;;;;5112709;28;20230;-65
2022/04/23 07:01:51;;;;;;;20.50;18.70;;;15.60;99.90;;;;;;5113556;28;20207;-66
2022/04/23 07:04:19;;;;;;;20.03;18.07;;;15.90;99.90;;;;;;5112732;28;20204;-66
2022/04/23 07:06:46;;;;;;;19.33;17.43;;;16.00;99.90;;;;;;5103859;28;20204;-65
2022/04/23 07:09:13;;;;;;;19.07;17.47;;;16.30;99.90;;;;;;5103216;28;20552;-66
2022/04/23 07:11:40;;;;;;;18.10;16.60;;;16.10;99.90;;;;;;5111927;28;20192;-69
2022/04/23 07:14:07;;;;;;;18.00;16.53;;;16.20;99.90;;;;;;5111608;28;20653;-67
2022/04/23 07:16:35;;;;;;;30.40;19.73;;;16.30;99.90;;;;;;5113503;28;20212;-66
2022/04/23 07:19:04;;;;;;;18.37;16.77;;;16.30;99.90;;;;;;5111060;28;20302;-65
2022/04/23 07:21:33;;;;;;;17.60;16.10;;;16.40;99.90;;;;;;5113494;28;20218;-66
2022/04/23 07:24:08;;;;;;;17.73;16.23;;;16.30;99.90;;;;;;5117341;28;20196;-67
2022/04/23 07:26:37;;;;;;;17.73;16.27;;;16.60;99.90;;;;;;5115763;28;20262;-67
2022/04/23 07:29:07;;;;;;;19.07;17.33;;;16.50;99.90;;;;;;5115496;28;20192;-66
2022/04/23 07:31:34;;;;;;;17.77;16.27;;;16.20;99.90;;;;;;5118301;28;20226;-66
2022/04/23 07:39:32;;;;;;;17.63;16.13;;;16.30;99.90;;;;;;5114558;28;20664;-66
2022/04/23 07:41:59;;;;;;;18.77;17.23;;;16.80;99.90;;;;;;5115886;28;20213;-65
2022/04/23 07:44:27;;;;;;;19.00;17.03;;;16.90;99.90;;;;;;5115847;28;20671;-66
2022/04/23 07:46:54;;;;;;;16.90;15.43;;;17.10;99.90;;;;;;5115871;28;20208;-67
2022/04/23 07:49:21;;;;;;;17.50;15.90;;;16.60;99.90;;;;;;5116287;28;20296;-67
2022/04/23 07:51:50;;;;;;;18.07;16.57;;;16.80;99.90;;;;;;5116100;28;20561;-67
2022/04/23 07:54:17;;;;;;;20.20;18.10;;;16.80;99.90;;;;;;5116491;28;20232;-66
2022/04/23 07:56:45;;;;;;;19.50;17.70;;;16.70;99.90;;;;;;5115471;28;20208;-67
2022/04/23 07:59:12;;;;;;;17.50;16.10;;;16.90;99.90;;;;;;5115769;28;20695;-66
2022/04/23 08:01:39;;;;;;;18.23;16.77;;;17.20;99.90;;;;;;5116283;28;20234;-66
2022/04/23 08:04:07;;;;;;;39.30;21.47;;;16.80;99.90;;;;;;5115847;28;20698;-64
2022/04/23 08:06:35;;;;;;;20.03;18.30;;;16.90;99.90;;;;;;5116063;28;20189;-62
2022/04/23 08:09:04;;;;;;;18.97;17.17;;;17.20;99.90;;;;;;5116169;28;20201;-66
2022/04/23 08:11:31;;;;;;;18.33;16.73;;;17.60;99.90;;;;;;5116242;27;20193;-65
2022/04/23 08:13:58;;;;;;;18.07;16.50;;;17.50;89.70;;;;;;5116070;28;20208;-66
2022/04/23 08:16:27;;;;;;;17.90;16.40;;;17.70;84.00;;;;;;5116113;28;20194;-65
2022/04/23 08:18:55;;;;;;;16.93;15.53;;;17.80;79.10;;;;;;5115931;28;20223;-65
2022/04/23 08:21:22;;;;;;;17.60;16.20;;;18.20;64.40;;;;;;5115229;28;20285;-63
2022/04/23 08:23:49;;;;;;;18.17;16.40;;;17.90;53.50;;;;;;5115774;28;20216;-64
2022/04/23 08:26:18;;;;;;;18.63;17.10;;;18.00;47.70;;;;;;5115796;28;20402;-66
2022/04/23 08:31:29;;;;;;;15.97;14.40;;;17.70;28.20;;;;;;5115300;28;20579;-65
2022/04/23 08:33:59;;;;;;;16.47;15.17;;;17.90;22.60;;;;;;5115571;28;20194;-65
2022/04/23 08:36:28;;;;;;;15.10;13.80;;;17.90;11.00;;;;;;5115595;28;20582;-62
2022/04/23 08:38:55;;;;;;;15.53;14.30;;;18.00;18.20;;;;;;5114878;28;20198;-63
2022/04/23 08:41:28;;;;;;;15.17;13.77;;;17.90;13.30;;;;;;5114489;28;20198;-64
2022/04/23 08:44:06;;;;;;;15.07;13.77;;;18.30;10.20;;;;;;5114683;28;20300;-65
2022/04/23 08:46:35;;;;;;;15.20;13.90;;;18.50;1.10;;;;;;5104277;28;20205;-64
2022/04/23 08:49:13;;;;;;;17.53;16.03;;;18.60;1.00;;;;;;5115842;28;20677;-61
2022/04/23 08:51:43;;;;;;;25.77;15.33;;;18.00;1.00;;;;;;5113847;28;20200;-64
2022/04/23 08:54:12;;;;;;;15.03;13.73;;;18.30;1.00;;;;;;5114287;28;20197;-65
2022/04/23 08:56:42;;;;;;;14.93;13.63;;;18.70;1.00;;;;;;5114954;28;20208;-67
2022/04/23 08:59:11;;;;;;;14.97;13.47;;;18.70;1.00;;;;;;5114856;28;20233;-62
2022/04/23 09:01:39;;;;;;;15.07;13.87;;;18.90;1.00;;;;;;5113519;28;20712;-64
2022/04/23 09:04:08;;;;;;;14.60;13.30;;;18.90;1.00;;;;;;5112433;28;20208;-61
2022/04/23 09:06:40;;;;;;;16.20;14.20;;;19.30;1.00;;;;;;5112879;28;20551;-62
2022/04/23 09:09:19;;;;;;;14.85;13.45;;;19.30;1.00;;;;;;5114327;28;20199;-62
2022/04/23 09:11:51;;;;;;;15.23;13.82;;;19.10;1.00;;;;;;5106116;28;20267;-62
2022/04/23 09:14:29;;;;;;;14.32;13.18;;;19.20;1.00;;;;;;5114768;28;20198;-61
2022/04/23 09:25:17;;;;;;;13.93;12.53;;;19.10;1.00;;;;;;5114576;28;20180;-64
2022/04/23 09:27:46;;;;;;;15.87;14.47;;;19.50;1.00;;;;;;5114460;28;20242;-62
2022/04/23 09:30:14;;;;;;;16.20;14.80;;;19.70;1.00;;;;;;5113990;28;20255;-62
2022/04/23 09:32:57;;;;;;;14.23;13.10;;;19.40;1.00;;;;;;5114216;28;20189;-62
2022/04/23 09:35:25;;;;;;;16.70;15.20;;;19.50;1.00;;;;;;5112836;28;20217;-62
2022/04/23 09:40:37;;;;;;;12.98;11.88;;;19.60;1.00;;;;;;5113961;28;20178;-62
2022/04/23 09:43:06;;;;;;;19.48;14.20;;;19.60;1.00;;;;;;5113446;28;20216;-62
2022/04/23 09:45:39;;;;;;;15.80;14.10;;;19.70;1.00;;;;;;5113697;28;20189;-62
2022/04/23 09:48:17;;;;;;;13.35;12.15;;;19.60;1.00;;;;;;5113736;28;20207;-63
2022/04/23 09:50:45;;;;;;;15.95;14.55;;;19.90;1.00;;;;;;5113174;28;20214;-63
2022/04/23 09:53:14;;;;;;;14.90;13.70;;;19.40;1.00;;;;;;5113712;28;20661;-62
2022/04/23 09:55:41;;;;;;;16.70;12.98;;;19.40;1.00;;;;;;5113696;28;20662;-63
2022/04/23 09:58:11;;;;;;;12.50;11.25;;;19.70;1.00;;;;;;5112882;28;20204;-64
2022/04/23 10:00:39;;;;;;;12.55;11.45;;;20.10;1.00;;;;;;5113209;28;20237;-64
2022/04/23 10:03:07;;;;;;;12.60;11.60;;;20.50;1.00;;;;;;5113133;28;20307;-65
2022/04/23 10:05:38;;;;;;;12.13;11.13;;;21.00;1.00;;;;;;5113457;28;20254;-65
2022/04/23 10:08:12;;;;;;;11.93;11.02;;;20.80;1.00;;;;;;5113248;28;20655;-64
2022/04/23 10:10:43;;;;;;;16.30;12.60;;;20.90;1.00;;;;;;5112857;28;20217;-64
2022/04/23 10:13:13;;;;;;;13.27;12.27;;;21.00;1.00;;;;;;5113011;28;20182;-64
2022/04/23 10:15:45;;;;;;;17.75;13.50;;;20.80;1.00;;;;;;5113421;28;20197;-64
2022/04/23 10:18:12;;;;;;;17.00;15.43;;;20.70;1.00;;;;;;5113450;28;20229;-66
2022/04/23 10:20:40;;;;;;;11.93;10.93;;;20.50;1.00;;;;;;5112941;28;20197;-63
2022/04/23 10:23:17;;;;;;;13.63;12.48;;;20.00;1.00;;;;;;5112885;28;20731;-65
2022/04/23 10:25:50;;;;;;;11.20;10.25;;;19.60;1.00;;;;;;5113244;28;20224;-65
2022/04/23 10:28:19;;;;;;;11.13;10.10;;;19.80;1.00;;;;;;5112077;28;20615;-64
2022/04/23 10:30:47;;;;;;;12.80;11.80;;;21.00;1.00;;;;;;5112474;28;20201;-63
2022/04/23 10:33:25;;;;;;;11.38;10.48;;;21.20;1.00;;;;;;5112295;28;20193;-61
2022/04/23 10:36:08;;;;;;;12.27;11.35;;;21.10;1.00;;;;;;5113018;28;20258;-61
2022/04/23 10:38:38;;;;;;;12.00;11.00;;;21.60;1.00;;;;;;5113009;28;20189;-61
2022/04/23 10:41:06;;;;;;;13.68;12.43;;;21.30;1.00;;;;;;5112702;28;20296;-62
2022/04/23 10:43:35;;;;;;;11.55;10.55;;;21.00;1.00;;;;;;5112386;28;20341;-62
2022/04/23 10:46:04;;;;;;;12.30;11.15;;;21.50;1.00;;;;;;5112758;28;20186;-62
2022/04/23 10:48:32;;;;;;;10.52;9.73;;;21.20;1.00;;;;;;5112555;28;20710;-62
2022/04/23 10:51:00;;;;;;;9.98;9.07;;;21.10;1.00;;;;;;5112879;28;20233;-62
2022/04/23 10:53:54;;;;;;;14.40;12.77;;;21.80;1.00;;;;;;5112938;28;20201;-61
2022/04/23 10:56:23;;;;;;;9.52;8.77;;;22.10;1.00;;;;;;5112655;28;20186;-62
2022/04/23 10:58:52;;;;;;;10.15;9.25;;;22.20;1.00;;;;;;5112231;28;20431;-61
2022/04/23 11:01:21;;;;;;;11.13;9.70;;;22.20;1.00;;;;;;5112433;28;20274;-62
2022/04/23 11:04:13;;;;;;;10.95;10.05;;;22.40;1.00;;;;;;5112260;28;20225;-61
2022/04/23 11:12:37;;;;;;;10.65;9.70;;;21.50;1.00;;;;;;5112607;28;20273;-62
2022/04/23 11:15:16;;;;;;;15.38;14.00;;;21.50;1.00;;;;;;5111677;28;20697;-61
2022/04/23 11:17:48;;;;;;;13.15;9.98;;;20.90;1.00;;;;;;5112477;28;20181;-61
2022/04/23 11:20:15;;;;;;;10.88;9.88;;;21.50;1.00;;;;;;5112455;28;20216;-61
2022/04/23 11:22:42;;;;;;;11.25;10.15;;;21.40;1.00;;;;;;5112076;28;20224;-61
2022/04/23 11:25:10;;;;;;;10.25;9.40;;;22.10;1.00;;;;;;5112442;28;20602;-62
2022/04/23 11:27:37;;;;;;;10.23;9.43;;;21.70;1.00;;;;;;5112395;28;20197;-61
2022/04/23 11:30:05;;;;;;;16.50;12.73;;;21.40;1.00;;;;;;5112139;28;20659;-62
2022/04/23 11:32:36;;;;;;;10.52;9.48;;;20.90;1.00;;;;;;5112198;28;20213;-62
2022/04/23 11:35:05;;;;;;;10.93;9.88;;;21.50;1.00;;;;;;5112357;28;20368;-61
2022/04/23 11:37:33;;;;;;;10.55;9.27;;;21.50;1.00;;;;;;5112258;28;20193;-61
2022/04/23 11:40:08;;;;;;;10.20;9.20;;;21.10;1.00;;;;;;5112524;28;20193;-62
2022/04/23 11:42:42;;;;;;;9.85;9.00;;;21.60;1.00;;;;;;5111867;28;20655;-62
2022/04/23 11:45:10;;;;;;;13.35;11.32;;;21.60;1.00;;;;;;5112294;28;20186;-62
2022/04/23 11:47:38;;;;;;;11.55;10.48;;;21.70;1.00;;;;;;5111930;28;20581;-62
2022/04/23 11:50:13;;;;;;;9.85;8.77;;;21.70;1.00;;;;;;5112475;28;20190;-62
2022/04/23 11:52:40;;;;;;;10.50;9.63;;;21.00;1.00;;;;;;5112522;28;20181;-62
2022/04/23 11:55:09;;;;;;;8.70;7.97;;;20.80;1.00;;;;;;5112187;28;20225;-62
2022/04/23 11:57:37;;;;;;;15.90;9.65;;;20.60;1.00;;;;;;5112171;28;20202;-62
2022/04/23 12:00:06;;;;;;;9.65;8.77;;;21.40;1.00;;;;;;5111716;28;20286;-62
2022/04/23 12:02:33;;;;;;;9.13;8.45;;;21.80;1.00;;;;;;5111896;28;20251;-62
2022/04/23 12:05:03;;;;;;;9.35;8.55;;;21.90;1.00;;;;;;5112183;28;20266;-62
2022/04/23 12:07:33;;;;;;;13.18;10.35;;;22.00;1.00;;;;;;5113546;28;20198;-61
2022/04/23 12:10:01;;;;;;;11.10;8.68;;;21.90;1.00;;;;;;5115874;28;20178;-62
2022/04/23 12:12:30;;;;;;;8.35;7.68;;;22.00;1.00;;;;;;5115763;28;20209;-59
2022/04/23 12:14:58;;;;;;;8.30;7.60;;;22.50;1.00;;;;;;5115816;28;20194;-59
2022/04/23 12:17:27;;;;;;;9.25;8.45;;;21.90;1.00;;;;;;5115687;28;20266;-58
2022/04/23 12:19:55;;;;;;;12.60;11.15;;;21.70;1.00;;;;;;5115574;28;20197;-59
2022/04/23 12:22:26;;;;;;;10.43;9.38;;;21.50;1.00;;;;;;5115578;28;20189;-58
2022/04/23 12:25:07;;;;;;;10.05;9.25;;;21.60;1.00;;;;;;5115225;28;20201;-62
2022/04/23 12:27:52;;;;;;;8.80;8.00;;;21.40;1.00;;;;;;5115792;27;20190;-62
2022/04/23 12:41:55;;;;;;;8.63;7.75;;;22.50;1.00;;;;;;5115176;28;20190;-60
2022/04/23 12:44:24;;;;;;;11.75;9.93;;;22.30;1.00;;;;;;5115096;28;20205;-60
2022/04/23 12:46:58;;;;;;;9.65;7.95;;;21.80;1.00;;;;;;5114716;28;20201;-63
2022/04/23 12:49:41;;;;;;;10.20;9.18;;;21.80;1.00;;;;;;5115309;28;20177;-62
2022/04/23 12:52:13;;;;;;;8.45;7.75;;;21.40;1.00;;;;;;5114947;28;20719;-62
2022/04/23 12:54:42;;;;;;;9.82;8.63;;;21.40;1.00;;;;;;5115333;28;20239;-62
2022/04/23 12:57:15;;;;;;;11.48;7.63;;;21.20;1.00;;;;;;5114809;28;20189;-62
2022/04/23 12:59:42;;;;;;;12.23;7.68;;;21.60;1.00;;;;;;5114556;28;20234;-61
2022/04/23 13:02:10;;;;;;;8.48;7.78;;;21.40;1.00;;;;;;5114717;28;20182;-62
2022/04/23 13:04:36;;;;;;;11.35;7.90;;;21.50;1.00;;;;;;5114357;28;20249;-61
2022/04/23 13:09:50;;;;;;;9.07;8.27;;;21.10;1.00;;;;;;5114946;28;20181;-62
2022/04/23 13:12:17;;;;;;;23.58;11.77;;;21.20;1.00;;;;;;5114804;27;20224;-64
2022/04/23 13:14:44;;;;;;;9.07;8.32;;;20.80;1.00;;;;;;5115034;28;20189;-63
2022/04/23 13:17:11;;;;;;;9.00;7.97;;;21.10;1.00;;;;;;5114797;28;20241;-63
2022/04/23 13:19:38;;;;;;;9.10;8.40;;;21.30;1.00;;;;;;5114513;28;20224;-63
2022/04/23 13:22:05;;;;;;;11.35;10.27;;;21.30;1.00;;;;;;5114685;28;20292;-63
2022/04/23 13:24:32;;;;;;;9.80;8.55;;;21.40;1.00;;;;;;5114335;28;20663;-63